createdAt,value
2024-02-28T00:02:47.842Z,18.58
2024-02-28T00:05:53.424Z,17.05
2024-02-28T00:09:00.892Z,17.50
2024-02-28T00:12:06.783Z,17.90
2024-02-28T00:15:14.575Z,17.77
2024-02-28T00:18:23.224Z,17.08
2024-02-28T00:21:30.759Z,15.48
2024-02-28T00:24:36.305Z,14.95
2024-02-28T00:27:43.916Z,15.00
2024-02-28T00:30:49.547Z,13.77
2024-02-28T00:33:59.736Z,13.98
2024-02-28T00:37:05.274Z,15.30
2024-02-28T00:40:14.112Z,15.95
2024-02-28T00:43:19.610Z,15.10
2024-02-28T00:46:27.149Z,15.07
2024-02-28T00:49:36.120Z,14.77
2024-02-28T00:52:43.915Z,15.38
2024-02-28T00:55:49.469Z,15.45
2024-02-28T00:58:56.946Z,15.85
2024-02-28T01:02:02.449Z,16.48
2024-02-28T01:05:12.928Z,15.63
2024-02-28T01:08:18.476Z,14.73
2024-02-28T01:11:25.988Z,14.43
2024-02-28T01:14:31.593Z,15.73
2024-02-28T01:17:39.127Z,15.23
2024-02-28T01:20:47.280Z,16.00
2024-02-28T01:23:55.534Z,15.98
2024-02-28T01:27:01.032Z,16.40
2024-02-28T01:30:10.360Z,16.10
2024-02-28T01:33:16.639Z,15.95
2024-02-28T01:36:27.735Z,16.98
2024-02-28T01:39:33.493Z,15.93
2024-02-28T01:42:41.086Z,15.88
2024-02-28T01:45:48.919Z,16.52
2024-02-28T01:48:57.058Z,15.45
2024-02-28T01:52:05.578Z,15.55
2024-02-28T01:55:13.437Z,15.45
2024-02-28T01:58:19.044Z,13.18
2024-02-28T02:01:26.651Z,15.27
2024-02-28T02:04:33.342Z,14.55
2024-02-28T02:07:44.019Z,14.48
2024-02-28T02:10:49.569Z,14.93
2024-02-28T02:13:57.734Z,15.65
2024-02-28T02:17:03.479Z,15.38
2024-02-28T02:20:15.725Z,15.88
2024-02-28T02:23:23.874Z,15.43
2024-02-28T02:26:31.375Z,15.85
2024-02-28T02:29:36.890Z,16.42
2024-02-28T02:32:44.405Z,16.67
2024-02-28T02:35:49.990Z,15.10
2024-02-28T02:39:00.276Z,15.57
2024-02-28T02:42:05.724Z,16.17
2024-02-28T02:45:13.847Z,15.57
2024-02-28T02:48:19.652Z,16.55
2024-02-28T02:51:27.366Z,15.23
2024-02-28T02:54:35.542Z,16.63
2024-02-28T02:57:45.214Z,18.13
2024-02-28T03:00:51.292Z,16.52
2024-02-28T03:03:58.946Z,17.00
2024-02-28T03:07:04.472Z,16.48
2024-02-28T03:10:14.582Z,17.08
2024-02-28T03:13:20.078Z,16.92
2024-02-28T03:16:27.560Z,17.25
2024-02-28T03:19:33.040Z,17.05
2024-02-28T03:22:40.488Z,16.42
2024-02-28T03:25:48.755Z,18.08
2024-02-28T03:28:56.247Z,16.33
2024-02-28T03:32:03.034Z,17.35
2024-02-28T03:35:11.456Z,17.73
2024-02-28T03:38:16.958Z,17.60
2024-02-28T03:41:27.073Z,17.48
2024-02-28T03:44:32.518Z,17.40
2024-02-28T03:47:39.957Z,18.42
2024-02-28T03:50:45.526Z,18.02
2024-02-28T03:53:53.105Z,18.13
2024-02-28T03:57:01.286Z,17.65
2024-02-28T04:00:10.522Z,17.85
2024-02-28T04:03:18.864Z,17.23
2024-02-28T04:06:26.439Z,17.58
2024-02-28T04:09:31.958Z,17.70
2024-02-28T04:12:42.078Z,18.40
2024-02-28T04:15:49.524Z,17.98
2024-02-28T04:18:57.088Z,18.50
2024-02-28T04:22:02.581Z,17.92
2024-02-28T04:25:12.115Z,17.58
2024-02-28T04:28:20.196Z,19.23
2024-02-28T04:31:27.774Z,18.55
2024-02-28T04:34:33.220Z,18.45
2024-02-28T04:37:40.688Z,17.80
2024-02-28T04:40:46.454Z,17.90
2024-02-28T04:43:56.469Z,17.35
2024-02-28T04:47:02.004Z,17.65
2024-02-28T04:50:10.427Z,18.77
2024-02-28T04:53:15.921Z,18.63
2024-02-28T04:56:23.409Z,20.45
2024-02-28T04:59:31.701Z,18.05
2024-02-28T05:02:39.255Z,18.45
2024-02-28T05:05:44.820Z,18.20
2024-02-28T05:08:52.233Z,19.25
2024-02-28T05:11:57.714Z,19.58
2024-02-28T05:15:08.957Z,20.23
2024-02-28T05:18:14.544Z,19.58
2024-02-28T05:21:22.057Z,19.42
2024-02-28T05:24:27.549Z,19.25
2024-02-28T05:27:35.032Z,20.13
2024-02-28T05:30:46.016Z,19.42
2024-02-28T05:33:55.937Z,17.77
2024-02-28T05:37:02.330Z,20.38
2024-02-28T05:40:14.080Z,18.55
2024-02-28T05:43:19.595Z,18.73
2024-02-28T05:46:29.793Z,17.52
2024-02-28T05:49:35.246Z,18.67
2024-02-28T05:52:45.198Z,19.02
2024-02-28T05:55:50.676Z,18.75
2024-02-28T05:58:58.178Z,21.52
2024-02-28T06:02:06.210Z,18.83
2024-02-28T06:05:13.754Z,18.92
2024-02-28T06:08:19.423Z,18.90
2024-02-28T06:11:26.958Z,20.10
2024-02-28T06:14:32.538Z,18.80
2024-02-28T06:17:42.847Z,21.23
2024-02-28T06:20:48.405Z,19.95
2024-02-28T06:23:55.876Z,20.80
2024-02-28T06:27:01.413Z,19.58
2024-02-28T06:30:10.991Z,20.00
2024-02-28T06:33:20.054Z,20.42
2024-02-28T06:36:27.853Z,19.52
2024-02-28T06:39:33.354Z,19.83
2024-02-28T06:42:41.154Z,20.33
2024-02-28T06:45:46.913Z,21.10
2024-02-28T06:48:59.964Z,20.40
2024-02-28T06:52:05.494Z,20.25
2024-02-28T06:55:15.755Z,20.23
2024-02-28T06:58:21.301Z,22.52
2024-02-28T07:01:28.891Z,20.45
2024-02-28T07:04:37.942Z,21.45
2024-02-28T07:07:45.466Z,20.70
2024-02-28T07:10:55.143Z,21.27
2024-02-28T07:14:03.619Z,23.20
2024-02-28T07:17:09.148Z,20.80
2024-02-28T07:20:19.491Z,21.55
2024-02-28T07:23:25.056Z,21.40
2024-02-28T07:26:32.559Z,21.52
2024-02-28T07:29:38.173Z,23.35
2024-02-28T07:32:45.790Z,22.80
2024-02-28T07:35:56.402Z,23.10
2024-02-28T07:39:04.176Z,23.15
2024-02-28T07:42:09.823Z,23.10
2024-02-28T07:45:17.636Z,25.10
2024-02-28T07:48:23.242Z,24.08
2024-02-28T07:51:33.480Z,24.17
2024-02-28T07:54:39.236Z,22.08
2024-02-28T07:57:46.799Z,22.95
2024-02-28T08:00:53.872Z,24.50
2024-02-28T08:04:01.647Z,22.77
2024-02-28T08:07:09.960Z,23.48
2024-02-28T08:10:17.383Z,22.00
2024-02-28T08:13:23.377Z,23.92
2024-02-28T08:16:32.555Z,23.67
2024-02-28T08:19:38.854Z,23.38
2024-02-28T08:22:48.955Z,23.55
2024-02-28T08:25:54.466Z,23.85
2024-02-28T08:29:01.947Z,25.30
2024-02-28T08:32:08.148Z,24.27
2024-02-28T08:35:15.689Z,24.33
2024-02-28T08:38:23.808Z,25.30
2024-02-28T08:41:31.282Z,25.05
2024-02-28T08:44:36.917Z,23.98
2024-02-28T08:47:46.100Z,24.65
2024-02-28T08:50:51.812Z,24.90
2024-02-28T08:54:01.926Z,24.55
2024-02-28T08:57:07.673Z,24.13
2024-02-28T09:00:21.169Z,24.65
2024-02-28T09:03:26.667Z,24.88
2024-02-28T09:06:34.240Z,24.85
2024-02-28T09:09:46.051Z,25.88
2024-02-28T09:12:53.811Z,26.27
2024-02-28T09:15:59.428Z,25.42
2024-02-28T09:19:07.865Z,25.27
2024-02-28T09:22:13.324Z,26.33
2024-02-28T09:25:27.000Z,25.40
2024-02-28T09:28:33.489Z,24.42
2024-02-28T09:31:41.107Z,25.00
2024-02-28T09:34:46.607Z,24.42
2024-02-28T09:37:54.133Z,24.27
2024-02-28T09:41:02.256Z,23.70
2024-02-28T09:44:10.965Z,25.10
2024-02-28T09:47:17.081Z,22.95
2024-02-28T09:50:25.766Z,25.63
2024-02-28T09:53:31.741Z,25.30
2024-02-28T09:56:41.904Z,26.60
2024-02-28T09:59:54.261Z,24.77
2024-02-28T10:03:05.462Z,25.45
2024-02-28T10:06:12.719Z,27.33
2024-02-28T10:09:20.690Z,24.45
2024-02-28T10:12:29.282Z,26.90
2024-02-28T10:15:36.898Z,26.80
2024-02-28T10:18:42.874Z,26.67
2024-02-28T10:21:50.844Z,25.85
2024-02-28T10:25:01.429Z,26.33
2024-02-28T10:28:11.725Z,25.42
2024-02-28T10:31:18.396Z,24.48
2024-02-28T10:34:26.003Z,24.75
2024-02-28T10:37:34.453Z,24.05
2024-02-28T10:40:42.145Z,24.02
2024-02-28T10:43:52.445Z,23.60
2024-02-28T10:47:00.296Z,23.27
2024-02-28T10:50:05.837Z,24.45
2024-02-28T10:53:19.006Z,22.38
2024-02-28T10:56:24.428Z,22.10
2024-02-28T10:59:36.769Z,22.95
2024-02-28T11:02:44.700Z,23.10
2024-02-28T11:05:52.239Z,24.40
2024-02-28T11:08:58.115Z,22.77
2024-02-28T11:12:08.788Z,23.50
2024-02-28T11:15:21.668Z,23.60
2024-02-28T11:18:29.242Z,23.08
2024-02-28T11:21:39.298Z,23.80
2024-02-28T11:24:48.889Z,24.73
2024-02-28T11:27:54.638Z,25.45
2024-02-28T11:31:04.957Z,24.90
2024-02-28T11:34:11.173Z,24.55
2024-02-28T11:37:18.823Z,25.23
2024-02-28T11:40:24.284Z,25.77
2024-02-28T11:43:36.628Z,25.80
2024-02-28T11:46:53.367Z,27.13
2024-02-28T11:50:04.045Z,24.95
2024-02-28T11:53:10.866Z,25.83
2024-02-28T11:56:22.389Z,25.30
2024-02-28T11:59:27.890Z,26.10
2024-02-28T12:02:38.259Z,24.83
2024-02-28T12:05:48.132Z,25.05
2024-02-28T12:08:56.129Z,25.27
2024-02-28T12:12:05.217Z,25.40
2024-02-28T12:15:14.079Z,22.77
2024-02-28T12:18:22.224Z,23.65
2024-02-28T12:21:29.942Z,24.15
2024-02-28T12:24:35.445Z,25.00
2024-02-28T12:27:43.255Z,23.02
2024-02-28T12:30:48.796Z,21.38
2024-02-28T12:33:59.189Z,21.60
2024-02-28T12:37:05.608Z,23.08
2024-02-28T12:40:15.391Z,22.40
2024-02-28T12:43:20.907Z,22.25
2024-02-28T12:46:28.444Z,21.17
2024-02-28T12:49:36.590Z,22.00
2024-02-28T12:52:44.213Z,23.95
2024-02-28T12:55:49.701Z,24.48
2024-02-28T12:58:57.315Z,21.10
2024-02-28T13:02:03.085Z,22.65
2024-02-28T13:05:15.459Z,21.27
2024-02-28T13:08:20.985Z,23.75
2024-02-28T13:11:29.149Z,22.90
2024-02-28T13:14:35.005Z,24.33
2024-02-28T13:17:42.929Z,23.80
2024-02-28T13:20:51.264Z,22.83
2024-02-28T13:23:58.842Z,24.23
2024-02-28T13:27:04.318Z,23.73
2024-02-28T13:30:12.914Z,24.08
2024-02-28T13:33:18.568Z,23.50
2024-02-28T13:36:28.778Z,24.63
2024-02-28T13:39:35.967Z,24.60
2024-02-28T13:42:43.550Z,25.13
2024-02-28T13:45:52.658Z,25.48
2024-02-28T13:49:00.287Z,26.95
2024-02-28T13:52:09.457Z,26.02
2024-02-28T13:55:17.155Z,26.40
2024-02-28T13:58:22.887Z,26.33
2024-02-28T14:01:30.886Z,25.77
2024-02-28T14:04:36.525Z,25.30
2024-02-28T14:07:46.655Z,24.92
2024-02-28T14:10:52.325Z,25.10
2024-02-28T14:13:59.959Z,24.70
2024-02-28T14:17:05.578Z,23.90
2024-02-28T14:20:14.547Z,23.17
2024-02-28T14:23:22.631Z,22.35
2024-02-28T14:26:30.162Z,22.50
2024-02-28T14:29:35.643Z,24.23
2024-02-28T14:32:44.855Z,22.50
2024-02-28T14:35:50.514Z,23.30
2024-02-28T14:39:00.625Z,23.40
2024-02-28T14:42:06.156Z,23.33
2024-02-28T14:45:15.884Z,24.30
2024-02-28T14:48:21.399Z,23.58
2024-02-28T14:51:31.343Z,23.35
2024-02-28T14:54:40.178Z,23.02
2024-02-28T14:57:47.679Z,22.33
2024-02-28T15:00:53.337Z,21.00
2024-02-28T15:04:00.948Z,22.30
2024-02-28T15:07:06.808Z,22.05
2024-02-28T15:10:17.512Z,22.63
2024-02-28T15:13:24.887Z,21.50
2024-02-28T15:16:32.498Z,22.45
2024-02-28T15:19:38.029Z,21.55
2024-02-28T15:22:47.065Z,22.67
2024-02-28T15:25:56.687Z,19.85
2024-02-28T15:29:04.178Z,21.70
2024-02-28T15:32:10.325Z,22.00
2024-02-28T15:35:17.859Z,22.42
2024-02-28T15:38:23.373Z,20.70
2024-02-28T15:41:33.488Z,21.83
2024-02-28T15:44:38.994Z,20.92
2024-02-28T15:47:47.142Z,21.98
2024-02-28T15:50:54.320Z,21.65
2024-02-28T15:54:01.990Z,22.65
2024-02-28T15:57:11.112Z,22.40
2024-02-28T16:00:19.895Z,21.48
2024-02-28T16:03:25.482Z,21.73
2024-02-28T16:06:39.459Z,20.08
2024-02-28T16:09:46.491Z,21.52
2024-02-28T16:12:56.707Z,20.08
2024-02-28T16:16:02.436Z,20.67
2024-02-28T16:19:15.884Z,19.77
2024-02-28T16:22:28.457Z,20.50
2024-02-28T16:25:35.999Z,19.73
2024-02-28T16:28:44.166Z,19.48
2024-02-28T16:31:52.251Z,20.10
2024-02-28T16:34:57.725Z,19.50
2024-02-28T16:38:05.176Z,19.75
2024-02-28T16:41:10.713Z,18.27
2024-02-28T16:44:20.810Z,19.02
2024-02-28T16:47:26.279Z,17.38
2024-02-28T16:50:33.802Z,17.58
2024-02-28T16:53:39.283Z,17.27
2024-02-28T16:56:46.853Z,16.33
2024-02-28T16:59:54.909Z,17.52
2024-02-28T17:03:02.368Z,17.52
2024-02-28T17:06:08.761Z,18.50
2024-02-28T17:09:16.195Z,17.48
2024-02-28T17:12:21.728Z,17.00
2024-02-28T17:15:31.944Z,17.10
2024-02-28T17:18:37.545Z,15.50
2024-02-28T17:21:45.201Z,16.73
2024-02-28T17:24:51.400Z,16.15
2024-02-28T17:27:59.000Z,16.85
2024-02-28T17:31:07.667Z,17.80
2024-02-28T17:34:15.601Z,18.80
2024-02-28T17:37:22.951Z,18.80
2024-02-28T17:40:30.826Z,18.20
2024-02-28T17:43:36.991Z,17.98
2024-02-28T17:46:47.287Z,19.73
2024-02-28T17:49:52.886Z,19.92
2024-02-28T17:53:00.357Z,19.38
2024-02-28T17:56:07.152Z,18.55
2024-02-28T17:59:14.607Z,18.63
2024-02-28T18:02:25.752Z,19.00
2024-02-28T18:05:33.175Z,21.10
2024-02-28T18:08:38.753Z,20.27
2024-02-28T18:11:46.355Z,21.60
2024-02-28T18:14:51.905Z,21.33
2024-02-28T18:18:02.032Z,20.23
2024-02-28T18:21:08.014Z,21.67
2024-02-28T18:24:15.569Z,19.50
2024-02-28T18:27:21.065Z,20.60
2024-02-28T18:30:28.623Z,19.73
2024-02-28T18:33:36.823Z,20.85
2024-02-28T18:36:44.401Z,21.90
2024-02-28T18:39:49.943Z,20.65
2024-02-28T18:42:57.468Z,21.48
2024-02-28T18:46:05.032Z,21.27
2024-02-28T18:49:15.278Z,20.17
2024-02-28T18:52:20.814Z,22.17
2024-02-28T18:55:28.258Z,22.50
2024-02-28T18:58:34.171Z,21.25
2024-02-28T19:01:42.813Z,20.42
2024-02-28T19:04:50.911Z,19.23
2024-02-28T19:07:58.404Z,22.02
2024-02-28T19:11:03.951Z,20.20
2024-02-28T19:14:11.576Z,20.52
2024-02-28T19:17:17.615Z,19.48
2024-02-28T19:20:27.799Z,19.70
2024-02-28T19:23:33.331Z,22.02
2024-02-28T19:26:40.802Z,21.52
2024-02-28T19:29:47.053Z,21.00
2024-02-28T19:32:57.186Z,19.02
2024-02-28T19:36:05.339Z,21.50
2024-02-28T19:39:12.939Z,18.80
2024-02-28T19:42:18.428Z,20.73
2024-02-28T19:45:26.122Z,19.33
2024-02-28T19:48:31.789Z,19.65
2024-02-28T19:51:44.071Z,20.30
2024-02-28T19:54:49.591Z,18.10
2024-02-28T19:57:57.213Z,19.20
2024-02-28T20:01:02.796Z,18.38
2024-02-28T20:04:11.086Z,20.48
2024-02-28T20:07:19.255Z,18.27
2024-02-28T20:10:27.438Z,19.52
2024-02-28T20:13:32.977Z,21.77
2024-02-28T20:16:41.367Z,18.67
2024-02-28T20:19:47.556Z,18.10
2024-02-28T20:22:57.709Z,20.05
2024-02-28T20:26:04.750Z,18.23
2024-02-28T20:29:12.262Z,19.75
2024-02-28T20:32:17.743Z,17.90
2024-02-28T20:35:25.442Z,19.20
2024-02-28T20:38:35.147Z,20.02
2024-02-28T20:41:42.831Z,20.30
2024-02-28T20:44:48.358Z,20.35
2024-02-28T20:47:57.850Z,19.50
2024-02-28T20:51:03.615Z,18.30
2024-02-28T20:54:13.841Z,18.05
2024-02-28T20:57:19.398Z,17.65
2024-02-28T21:00:28.373Z,17.25
2024-02-28T21:03:33.956Z,17.15
2024-02-28T21:06:41.525Z,16.98
2024-02-28T21:09:51.381Z,15.25
2024-02-28T21:12:58.987Z,16.02
2024-02-28T21:16:04.612Z,15.63
2024-02-28T21:19:12.744Z,15.32
2024-02-28T21:22:18.262Z,16.10
2024-02-28T21:25:28.573Z,14.63
2024-02-28T21:28:34.089Z,15.98
2024-02-28T21:31:41.571Z,15.70
2024-02-28T21:34:47.080Z,15.02
2024-02-28T21:37:54.627Z,16.17
2024-02-28T21:41:03.269Z,16.17
2024-02-28T21:44:10.776Z,15.60
2024-02-28T21:47:16.985Z,14.88
2024-02-28T21:50:24.813Z,15.35
2024-02-28T21:53:30.420Z,15.70
2024-02-28T21:56:42.088Z,16.13
2024-02-28T21:59:49.790Z,14.40
2024-02-28T22:02:59.136Z,14.38
2024-02-28T22:06:06.374Z,15.23
2024-02-28T22:09:15.219Z,14.95
2024-02-28T22:12:23.335Z,17.15
2024-02-28T22:15:30.845Z,14.65
2024-02-28T22:18:36.377Z,15.00
2024-02-28T22:21:43.959Z,13.48
2024-02-28T22:24:49.475Z,15.15
2024-02-28T22:27:59.627Z,14.95
2024-02-28T22:31:05.344Z,15.98
2024-02-28T22:34:12.973Z,14.88
2024-02-28T22:37:18.681Z,15.07
2024-02-28T22:40:26.218Z,15.95
2024-02-28T22:43:34.349Z,15.35
2024-02-28T22:46:41.864Z,13.68
2024-02-28T22:49:47.381Z,14.15
2024-02-28T22:52:54.860Z,15.18
2024-02-28T22:56:00.530Z,14.43
2024-02-28T22:59:10.707Z,14.40
2024-02-28T23:02:16.202Z,14.05
2024-02-28T23:05:29.768Z,16.20
2024-02-28T23:08:35.400Z,14.98
2024-02-28T23:11:43.510Z,16.80
2024-02-28T23:14:53.596Z,15.00
2024-02-28T23:18:01.799Z,14.85
2024-02-28T23:21:07.829Z,13.93
2024-02-28T23:24:15.548Z,14.63
2024-02-28T23:27:20.993Z,14.50
2024-02-28T23:30:31.131Z,13.82
2024-02-28T23:33:36.699Z,13.30
2024-02-28T23:36:44.269Z,15.05
2024-02-28T23:39:49.998Z,13.95
2024-02-28T23:42:57.606Z,12.60
2024-02-28T23:46:06.240Z,12.32
2024-02-28T23:49:13.739Z,12.77
2024-02-28T23:52:19.287Z,13.15
2024-02-28T23:55:26.763Z,12.98
2024-02-28T23:58:32.314Z,14.02
